sensor_id;sensor_type;location;lat;lon;timestamp;temperature;humidity
16980;DHT22;42288;52.182;21.156;2022-10-16T00:01:13;15.90;97.20
16980;DHT22;42288;52.182;21.156;2022-10-16T00:03:40;15.90;97.10
16980;DHT22;42288;52.182;21.156;2022-10-16T00:06:06;15.90;97.30
16980;DHT22;42288;52.182;21.156;2022-10-16T00:08:33;15.80;97.40
16980;DHT22;42288;52.182;21.156;2022-10-16T00:11:08;15.70;97.40
16980;DHT22;42288;52.182;21.156;2022-10-16T00:13:36;15.60;97.90
16980;DHT22;42288;52.182;21.156;2022-10-16T00:16:03;15.70;97.80
16980;DHT22;42288;52.182;21.156;2022-10-16T00:18:29;15.60;98.40
16980;DHT22;42288;52.182;21.156;2022-10-16T00:21:00;15.50;98.60
16980;DHT22;42288;52.182;21.156;2022-10-16T00:23:26;15.50;98.60
16980;DHT22;42288;52.182;21.156;2022-10-16T00:25:56;15.60;98.80
16980;DHT22;42288;52.182;21.156;2022-10-16T00:28:22;15.50;99.00
16980;DHT22;42288;52.182;21.156;2022-10-16T00:30:47;15.50;99.50
16980;DHT22;42288;52.182;21.156;2022-10-16T00:33:13;15.30;99.90
16980;DHT22;42288;52.182;21.156;2022-10-16T00:35:38;15.20;99.90
16980;DHT22;42288;52.182;21.156;2022-10-16T00:38:04;15.30;99.90
16980;DHT22;42288;52.182;21.156;2022-10-16T00:40:29;15.20;99.90
16980;DHT22;42288;52.182;21.156;2022-10-16T00:42:55;15.20;99.90
16980;DHT22;42288;52.182;21.156;2022-10-16T00:45:20;15.20;99.90
16980;DHT22;42288;52.182;21.156;2022-10-16T00:47:47;15.30;99.90
16980;DHT22;42288;52.182;21.156;2022-10-16T00:50:41;15.40;99.90
16980;DHT22;42288;52.182;21.156;2022-10-16T00:53:09;15.40;99.90
16980;DHT22;42288;52.182;21.156;2022-10-16T00:55:35;15.30;99.90
16980;DHT22;42288;52.182;21.156;2022-10-16T00:58:01;15.20;99.90
16980;DHT22;42288;52.182;21.156;2022-10-16T01:00:27;15.20;99.90
16980;DHT22;42288;52.182;21.156;2022-10-16T01:02:58;15.20;99.90
16980;DHT22;42288;52.182;21.156;2022-10-16T01:05:49;15.30;99.90
16980;DHT22;42288;52.182;21.156;2022-10-16T01:11:35;15.30;99.90
16980;DHT22;42288;52.182;21.156;2022-10-16T01:14:15;15.50;99.90
16980;DHT22;42288;52.182;21.156;2022-10-16T01:16:49;15.30;99.90
16980;DHT22;42288;52.182;21.156;2022-10-16T01:19:37;15.10;99.90
16980;DHT22;42288;52.182;21.156;2022-10-16T01:22:06;15.30;99.90
16980;DHT22;42288;52.182;21.156;2022-10-16T01:24:40;15.20;99.90
16980;DHT22;42288;52.182;21.156;2022-10-16T01:30:02;14.80;99.90
16980;DHT22;42288;52.182;21.156;2022-10-16T01:32:55;14.80;99.90
16980;DHT22;42288;52.182;21.156;2022-10-16T01:35:43;14.70;99.90
16980;DHT22;42288;52.182;21.156;2022-10-16T01:38:19;14.90;99.90
16980;DHT22;42288;52.182;21.156;2022-10-16T01:40:49;14.80;99.90
16980;DHT22;42288;52.182;21.156;2022-10-16T01:43:22;14.90;99.90
16980;DHT22;42288;52.182;21.156;2022-10-16T01:45:50;14.90;99.90
16980;DHT22;42288;52.182;21.156;2022-10-16T01:48:18;14.90;99.90
16980;DHT22;42288;52.182;21.156;2022-10-16T01:50:52;15.00;99.90
16980;DHT22;42288;52.182;21.156;2022-10-16T01:53:20;14.70;99.90
16980;DHT22;42288;52.182;21.156;2022-10-16T01:55:47;14.60;99.90
16980;DHT22;42288;52.182;21.156;2022-10-16T01:58:14;14.50;99.90
16980;DHT22;42288;52.182;21.156;2022-10-16T02:00:44;14.50;99.90
16980;DHT22;42288;52.182;21.156;2022-10-16T02:03:12;14.60;99.90
16980;DHT22;42288;52.182;21.156;2022-10-16T02:05:58;14.60;99.90
16980;DHT22;42288;52.182;21.156;2022-10-16T02:08:25;14.60;99.90
16980;DHT22;42288;52.182;21.156;2022-10-16T02:10:51;14.60;99.90
16980;DHT22;42288;52.182;21.156;2022-10-16T02:13:29;14.60;99.90
16980;DHT22;42288;52.182;21.156;2022-10-16T02:15:56;14.40;99.90
16980;DHT22;42288;52.182;21.156;2022-10-16T02:18:22;14.50;99.90
16980;DHT22;42288;52.182;21.156;2022-10-16T02:23:43;14.40;99.90
16980;DHT22;42288;52.182;21.156;2022-10-16T02:26:13;14.50;99.90
16980;DHT22;42288;52.182;21.156;2022-10-16T02:28:46;14.40;99.90
16980;DHT22;42288;52.182;21.156;2022-10-16T02:31:18;14.30;99.90
16980;DHT22;42288;52.182;21.156;2022-10-16T02:33:45;14.30;99.90
16980;DHT22;42288;52.182;21.156;2022-10-16T02:36:11;14.40;99.90
16980;DHT22;42288;52.182;21.156;2022-10-16T02:38:39;14.30;99.90
16980;DHT22;42288;52.182;21.156;2022-10-16T02:41:05;14.40;99.90
16980;DHT22;42288;52.182;21.156;2022-10-16T02:43:31;14.40;99.90
16980;DHT22;42288;52.182;21.156;2022-10-16T02:45:56;14.20;99.90
16980;DHT22;42288;52.182;21.156;2022-10-16T02:48:22;14.20;99.90
16980;DHT22;42288;52.182;21.156;2022-10-16T02:50:47;14.30;99.90
16980;DHT22;42288;52.182;21.156;2022-10-16T02:53:13;14.10;99.90
16980;DHT22;42288;52.182;21.156;2022-10-16T02:55:38;14.20;99.90
16980;DHT22;42288;52.182;21.156;2022-10-16T02:58:04;14.10;99.90
16980;DHT22;42288;52.182;21.156;2022-10-16T03:00:29;14.20;99.90
16980;DHT22;42288;52.182;21.156;2022-10-16T03:02:55;14.40;99.90
16980;DHT22;42288;52.182;21.156;2022-10-16T03:05:20;14.40;99.90
16980;DHT22;42288;52.182;21.156;2022-10-16T03:07:46;14.30;99.90
16980;DHT22;42288;52.182;21.156;2022-10-16T03:10:12;14.30;99.90
16980;DHT22;42288;52.182;21.156;2022-10-16T03:12:37;14.40;99.90
16980;DHT22;42288;52.182;21.156;2022-10-16T03:15:03;14.40;99.90
16980;DHT22;42288;52.182;21.156;2022-10-16T03:17:28;14.40;99.90
16980;DHT22;42288;52.182;21.156;2022-10-16T03:19:54;14.40;99.90
16980;DHT22;42288;52.182;21.156;2022-10-16T03:22:19;14.30;99.90
16980;DHT22;42288;52.182;21.156;2022-10-16T03:24:45;14.40;99.90
16980;DHT22;42288;52.182;21.156;2022-10-16T03:27:10;14.40;99.90
16980;DHT22;42288;52.182;21.156;2022-10-16T03:29:36;14.40;99.90
16980;DHT22;42288;52.182;21.156;2022-10-16T03:32:01;14.30;99.90
16980;DHT22;42288;52.182;21.156;2022-10-16T03:34:27;14.40;99.90
16980;DHT22;42288;52.182;21.156;2022-10-16T03:36:53;14.40;99.90
16980;DHT22;42288;52.182;21.156;2022-10-16T03:39:19;14.30;99.90
16980;DHT22;42288;52.182;21.156;2022-10-16T03:41:44;14.40;99.90
16980;DHT22;42288;52.182;21.156;2022-10-16T03:44:11;14.50;99.90
16980;DHT22;42288;52.182;21.156;2022-10-16T03:46:37;14.50;99.90
16980;DHT22;42288;52.182;21.156;2022-10-16T03:49:02;14.40;99.90
16980;DHT22;42288;52.182;21.156;2022-10-16T03:51:28;14.40;99.90
16980;DHT22;42288;52.182;21.156;2022-10-16T03:53:54;14.40;99.90
16980;DHT22;42288;52.182;21.156;2022-10-16T03:56:20;14.40;99.90
16980;DHT22;42288;52.182;21.156;2022-10-16T03:58:45;14.40;99.90
16980;DHT22;42288;52.182;21.156;2022-10-16T04:01:11;14.20;99.90
16980;DHT22;42288;52.182;21.156;2022-10-16T04:03:36;14.00;99.90
16980;DHT22;42288;52.182;21.156;2022-10-16T04:06:01;14.10;99.90
16980;DHT22;42288;52.182;21.156;2022-10-16T04:08:27;14.30;99.90
16980;DHT22;42288;52.182;21.156;2022-10-16T04:10:52;14.30;99.90
16980;DHT22;42288;52.182;21.156;2022-10-16T04:13:18;14.30;99.90
16980;DHT22;42288;52.182;21.156;2022-10-16T04:15:45;14.30;99.90
16980;DHT22;42288;52.182;21.156;2022-10-16T04:18:10;14.10;99.90
16980;DHT22;42288;52.182;21.156;2022-10-16T04:20:36;14.10;99.90
16980;DHT22;42288;52.182;21.156;2022-10-16T04:23:01;14.30;99.90
16980;DHT22;42288;52.182;21.156;2022-10-16T04:25:27;14.30;99.90
16980;DHT22;42288;52.182;21.156;2022-10-16T04:27:53;14.20;99.90
16980;DHT22;42288;52.182;21.156;2022-10-16T04:30:20;14.20;99.90
16980;DHT22;42288;52.182;21.156;2022-10-16T04:32:52;14.10;99.90
16980;DHT22;42288;52.182;21.156;2022-10-16T04:35:18;14.20;99.90
16980;DHT22;42288;52.182;21.156;2022-10-16T04:37:44;14.20;99.90
16980;DHT22;42288;52.182;21.156;2022-10-16T04:40:10;14.20;99.90
16980;DHT22;42288;52.182;21.156;2022-10-16T04:42:35;14.10;99.90
16980;DHT22;42288;52.182;21.156;2022-10-16T04:45:01;14.10;99.90
16980;DHT22;42288;52.182;21.156;2022-10-16T04:47:26;14.10;99.90
16980;DHT22;42288;52.182;21.156;2022-10-16T04:49:51;14.20;99.90
16980;DHT22;42288;52.182;21.156;2022-10-16T04:52:17;14.10;99.90
16980;DHT22;42288;52.182;21.156;2022-10-16T04:54:44;14.20;99.90
16980;DHT22;42288;52.182;21.156;2022-10-16T04:57:10;14.30;99.90
16980;DHT22;42288;52.182;21.156;2022-10-16T04:59:36;14.20;99.90
16980;DHT22;42288;52.182;21.156;2022-10-16T05:02:01;14.10;99.90
16980;DHT22;42288;52.182;21.156;2022-10-16T05:04:27;14.20;99.90
16980;DHT22;42288;52.182;21.156;2022-10-16T05:06:52;14.30;99.90
16980;DHT22;42288;52.182;21.156;2022-10-16T05:09:18;14.40;99.90
16980;DHT22;42288;52.182;21.156;2022-10-16T05:11:43;14.30;99.90
16980;DHT22;42288;52.182;21.156;2022-10-16T05:14:09;14.00;99.90
16980;DHT22;42288;52.182;21.156;2022-10-16T05:16:34;14.10;99.90
16980;DHT22;42288;52.182;21.156;2022-10-16T05:19:00;13.90;99.90
16980;DHT22;42288;52.182;21.156;2022-10-16T05:21:25;13.70;99.90
16980;DHT22;42288;52.182;21.156;2022-10-16T05:23:53;13.70;99.90
16980;DHT22;42288;52.182;21.156;2022-10-16T05:26:18;13.90;99.90
16980;DHT22;42288;52.182;21.156;2022-10-16T05:28:44;14.10;99.90
16980;DHT22;42288;52.182;21.156;2022-10-16T05:31:10;14.20;99.90
16980;DHT22;42288;52.182;21.156;2022-10-16T05:33:35;14.50;99.90
16980;DHT22;42288;52.182;21.156;2022-10-16T05:36:08;14.40;99.90
16980;DHT22;42288;52.182;21.156;2022-10-16T05:38:35;14.50;99.90
16980;DHT22;42288;52.182;21.156;2022-10-16T05:41:01;14.30;99.90
16980;DHT22;42288;52.182;21.156;2022-10-16T05:43:28;14.20;99.90
16980;DHT22;42288;52.182;21.156;2022-10-16T05:45:55;14.20;99.90
16980;DHT22;42288;52.182;21.156;2022-10-16T05:48:21;14.10;99.90
16980;DHT22;42288;52.182;21.156;2022-10-16T05:50:47;13.90;99.90
16980;DHT22;42288;52.182;21.156;2022-10-16T05:53:13;13.70;99.90
16980;DHT22;42288;52.182;21.156;2022-10-16T05:55:38;13.70;99.90
16980;DHT22;42288;52.182;21.156;2022-10-16T05:58:03;13.70;99.90
16980;DHT22;42288;52.182;21.156;2022-10-16T06:00:29;13.70;99.90
16980;DHT22;42288;52.182;21.156;2022-10-16T06:02:54;13.70;99.90
16980;DHT22;42288;52.182;21.156;2022-10-16T06:05:20;13.70;99.90
16980;DHT22;42288;52.182;21.156;2022-10-16T06:07:45;13.70;99.90
16980;DHT22;42288;52.182;21.156;2022-10-16T06:10:11;13.80;99.90
16980;DHT22;42288;52.182;21.156;2022-10-16T06:12:36;13.80;99.90
16980;DHT22;42288;52.182;21.156;2022-10-16T06:15:02;14.00;99.90
16980;DHT22;42288;52.182;21.156;2022-10-16T06:17:27;14.20;99.90
16980;DHT22;42288;52.182;21.156;2022-10-16T06:19:53;14.40;99.90
16980;DHT22;42288;52.182;21.156;2022-10-16T06:22:18;14.30;99.90
16980;DHT22;42288;52.182;21.156;2022-10-16T06:24:44;14.60;99.90
16980;DHT22;42288;52.182;21.156;2022-10-16T06:27:09;14.40;99.90
16980;DHT22;42288;52.182;21.156;2022-10-16T06:29:35;14.30;99.90
16980;DHT22;42288;52.182;21.156;2022-10-16T06:32:00;14.50;99.90
16980;DHT22;42288;52.182;21.156;2022-10-16T06:34:26;14.30;99.90
16980;DHT22;42288;52.182;21.156;2022-10-16T06:36:51;14.40;99.90
16980;DHT22;42288;52.182;21.156;2022-10-16T06:39:17;14.40;99.90
16980;DHT22;42288;52.182;21.156;2022-10-16T06:41:42;14.70;99.90
16980;DHT22;42288;52.182;21.156;2022-10-16T06:44:08;14.90;99.90
16980;DHT22;42288;52.182;21.156;2022-10-16T06:46:33;14.70;99.90
16980;DHT22;42288;52.182;21.156;2022-10-16T06:48:59;15.00;99.90
16980;DHT22;42288;52.182;21.156;2022-10-16T06:51:25;14.90;99.90
16980;DHT22;42288;52.182;21.156;2022-10-16T06:53:53;14.90;99.90
16980;DHT22;42288;52.182;21.156;2022-10-16T06:56:24;14.90;99.90
16980;DHT22;42288;52.182;21.156;2022-10-16T06:58:50;14.90;99.90
16980;DHT22;42288;52.182;21.156;2022-10-16T07:01:17;14.80;99.90
16980;DHT22;42288;52.182;21.156;2022-10-16T07:03:44;15.10;99.90
16980;DHT22;42288;52.182;21.156;2022-10-16T07:06:12;15.10;99.90
16980;DHT22;42288;52.182;21.156;2022-10-16T07:08:39;15.30;99.90
16980;DHT22;42288;52.182;21.156;2022-10-16T07:11:07;15.40;99.90
16980;DHT22;42288;52.182;21.156;2022-10-16T07:13:34;15.50;99.90
16980;DHT22;42288;52.182;21.156;2022-10-16T07:16:08;15.30;99.90
16980;DHT22;42288;52.182;21.156;2022-10-16T07:18:34;15.60;99.90
16980;DHT22;42288;52.182;21.156;2022-10-16T07:21:08;15.80;99.90
16980;DHT22;42288;52.182;21.156;2022-10-16T07:23:34;15.70;99.90
16980;DHT22;42288;52.182;21.156;2022-10-16T07:26:00;15.60;99.90
16980;DHT22;42288;52.182;21.156;2022-10-16T07:28:26;15.80;99.90
16980;DHT22;42288;52.182;21.156;2022-10-16T07:30:51;15.80;99.90
16980;DHT22;42288;52.182;21.156;2022-10-16T07:33:17;16.10;99.90
16980;DHT22;42288;52.182;21.156;2022-10-16T07:35:53;15.90;99.90
16980;DHT22;42288;52.182;21.156;2022-10-16T07:38:20;15.60;99.80
16980;DHT22;42288;52.182;21.156;2022-10-16T07:40:46;15.80;99.90
16980;DHT22;42288;52.182;21.156;2022-10-16T07:43:11;15.70;99.90
16980;DHT22;42288;52.182;21.156;2022-10-16T07:45:37;15.80;99.90
16980;DHT22;42288;52.182;21.156;2022-10-16T07:48:03;15.80;99.90
16980;DHT22;42288;52.182;21.156;2022-10-16T07:50:29;15.90;99.90
16980;DHT22;42288;52.182;21.156;2022-10-16T07:52:54;16.00;99.90
16980;DHT22;42288;52.182;21.156;2022-10-16T07:55:20;16.30;99.80
16980;DHT22;42288;52.182;21.156;2022-10-16T07:57:45;16.40;99.60
16980;DHT22;42288;52.182;21.156;2022-10-16T08:00:11;16.60;99.40
16980;DHT22;42288;52.182;21.156;2022-10-16T08:02:39;16.90;99.30
16980;DHT22;42288;52.182;21.156;2022-10-16T08:05:06;16.90;98.90
16980;DHT22;42288;52.182;21.156;2022-10-16T08:07:31;17.30;98.40
16980;DHT22;42288;52.182;21.156;2022-10-16T08:09:57;17.30;97.60
16980;DHT22;42288;52.182;21.156;2022-10-16T08:12:24;17.50;97.90
16980;DHT22;42288;52.182;21.156;2022-10-16T08:14:49;17.60;96.80
16980;DHT22;42288;52.182;21.156;2022-10-16T08:17:15;17.70;97.20
16980;DHT22;42288;52.182;21.156;2022-10-16T08:19:47;17.80;96.30
16980;DHT22;42288;52.182;21.156;2022-10-16T08:22:14;18.20;95.80
16980;DHT22;42288;52.182;21.156;2022-10-16T08:24:39;17.90;95.10
16980;DHT22;42288;52.182;21.156;2022-10-16T08:27:05;18.00;95.80
16980;DHT22;42288;52.182;21.156;2022-10-16T08:29:32;18.40;95.60
16980;DHT22;42288;52.182;21.156;2022-10-16T08:31:57;18.70;94.70
16980;DHT22;42288;52.182;21.156;2022-10-16T08:34:23;18.80;94.30
16980;DHT22;42288;52.182;21.156;2022-10-16T08:36:48;18.90;94.10
16980;DHT22;42288;52.182;21.156;2022-10-16T08:39:13;19.10;94.30
16980;DHT22;42288;52.182;21.156;2022-10-16T08:45:08;19.40;93.10
16980;DHT22;42288;52.182;21.156;2022-10-16T08:48:00;19.00;93.00
16980;DHT22;42288;52.182;21.156;2022-10-16T08:50:32;19.10;93.10
16980;DHT22;42288;52.182;21.156;2022-10-16T08:52:58;19.20;92.90
16980;DHT22;42288;52.182;21.156;2022-10-16T08:55:37;19.20;93.10
16980;DHT22;42288;52.182;21.156;2022-10-16T08:58:21;19.20;93.20
16980;DHT22;42288;52.182;21.156;2022-10-16T09:00:51;19.20;93.00
16980;DHT22;42288;52.182;21.156;2022-10-16T09:06:29;19.00;93.10
16980;DHT22;42288;52.182;21.156;2022-10-16T09:12:00;18.90;93.60
16980;DHT22;42288;52.182;21.156;2022-10-16T09:14:50;19.20;93.10
16980;DHT22;42288;52.182;21.156;2022-10-16T09:17:41;19.10;92.80
16980;DHT22;42288;52.182;21.156;2022-10-16T09:25:44;18.90;93.70
16980;DHT22;42288;52.182;21.156;2022-10-16T09:28:10;19.10;93.30
16980;DHT22;42288;52.182;21.156;2022-10-16T09:30:35;19.20;93.90
16980;DHT22;42288;52.182;21.156;2022-10-16T09:33:02;19.50;92.90
16980;DHT22;42288;52.182;21.156;2022-10-16T09:35:38;19.90;92.40
16980;DHT22;42288;52.182;21.156;2022-10-16T09:38:04;19.90;91.90
16980;DHT22;42288;52.182;21.156;2022-10-16T09:40:35;20.10;91.60
16980;DHT22;42288;52.182;21.156;2022-10-16T09:43:35;20.40;92.40
16980;DHT22;42288;52.182;21.156;2022-10-16T09:46:08;20.60;91.70
16980;DHT22;42288;52.182;21.156;2022-10-16T09:48:39;20.90;90.80
16980;DHT22;42288;52.182;21.156;2022-10-16T09:54:11;22.20;86.70
16980;DHT22;42288;52.182;21.156;2022-10-16T09:56:37;22.30;86.60
16980;DHT22;42288;52.182;21.156;2022-10-16T09:59:15;22.40;86.00
16980;DHT22;42288;52.182;21.156;2022-10-16T10:01:47;22.00;84.70
16980;DHT22;42288;52.182;21.156;2022-10-16T10:04:13;22.20;87.80
16980;DHT22;42288;52.182;21.156;2022-10-16T10:06:46;22.90;86.90
16980;DHT22;42288;52.182;21.156;2022-10-16T10:09:22;23.20;85.60
16980;DHT22;42288;52.182;21.156;2022-10-16T10:11:50;22.50;83.20
16980;DHT22;42288;52.182;21.156;2022-10-16T10:14:27;23.40;84.10
16980;DHT22;42288;52.182;21.156;2022-10-16T10:30:59;25.60;70.60
16980;DHT22;42288;52.182;21.156;2022-10-16T10:42:49;22.40;76.00
16980;DHT22;42288;52.182;21.156;2022-10-16T10:44:56;23.30;80.00
16980;DHT22;42288;52.182;21.156;2022-10-16T10:50:45;23.60;77.20
16980;DHT22;42288;52.182;21.156;2022-10-16T10:55:54;23.00;79.60
16980;DHT22;42288;52.182;21.156;2022-10-16T10:58:31;22.90;80.40
16980;DHT22;42288;52.182;21.156;2022-10-16T11:01:30;23.10;79.30
16980;DHT22;42288;52.182;21.156;2022-10-16T11:07:08;22.90;79.60
16980;DHT22;42288;52.182;21.156;2022-10-16T11:09:40;22.90;80.10
16980;DHT22;42288;52.182;21.156;2022-10-16T11:12:14;23.00;80.80
16980;DHT22;42288;52.182;21.156;2022-10-16T11:15:10;22.90;79.10
16980;DHT22;42288;52.182;21.156;2022-10-16T11:17:41;22.90;79.20
16980;DHT22;42288;52.182;21.156;2022-10-16T11:20:16;23.10;79.30
16980;DHT22;42288;52.182;21.156;2022-10-16T11:22:48;23.10;79.10
16980;DHT22;42288;52.182;21.156;2022-10-16T11:28:03;22.70;79.70
16980;DHT22;42288;52.182;21.156;2022-10-16T11:30:46;22.80;80.10
16980;DHT22;42288;52.182;21.156;2022-10-16T11:33:22;22.50;79.80
16980;DHT22;42288;52.182;21.156;2022-10-16T11:38:40;22.60;80.50
16980;DHT22;42288;52.182;21.156;2022-10-16T11:41:17;22.30;81.90
16980;DHT22;42288;52.182;21.156;2022-10-16T11:46:29;22.40;82.00
16980;DHT22;42288;52.182;21.156;2022-10-16T11:49:18;22.40;80.40
16980;DHT22;42288;52.182;21.156;2022-10-16T11:51:58;22.20;80.30
16980;DHT22;42288;52.182;21.156;2022-10-16T11:54:35;22.40;80.50
16980;DHT22;42288;52.182;21.156;2022-10-16T11:57:12;22.70;79.80
16980;DHT22;42288;52.182;21.156;2022-10-16T11:59:59;22.80;79.50
16980;DHT22;42288;52.182;21.156;2022-10-16T12:05:19;22.60;79.60
16980;DHT22;42288;52.182;21.156;2022-10-16T12:07:57;22.50;79.00
16980;DHT22;42288;52.182;21.156;2022-10-16T12:10:28;22.30;80.20
16980;DHT22;42288;52.182;21.156;2022-10-16T12:12:54;22.50;79.80
16980;DHT22;42288;52.182;21.156;2022-10-16T12:15:31;22.50;80.20
16980;DHT22;42288;52.182;21.156;2022-10-16T12:17:57;22.40;79.80
16980;DHT22;42288;52.182;21.156;2022-10-16T12:22:54;22.60;79.80
16980;DHT22;42288;52.182;21.156;2022-10-16T12:25:34;22.80;79.40
16980;DHT22;42288;52.182;21.156;2022-10-16T12:30:38;22.70;80.50
16980;DHT22;42288;52.182;21.156;2022-10-16T12:33:06;22.80;79.20
16980;DHT22;42288;52.182;21.156;2022-10-16T12:35:44;22.90;80.10
16980;DHT22;42288;52.182;21.156;2022-10-16T12:38:26;22.80;80.40
16980;DHT22;42288;52.182;21.156;2022-10-16T12:40:57;22.90;79.40
16980;DHT22;42288;52.182;21.156;2022-10-16T12:46:02;22.50;79.50
16980;DHT22;42288;52.182;21.156;2022-10-16T12:48:29;22.60;79.80
16980;DHT22;42288;52.182;21.156;2022-10-16T12:50:56;22.40;80.10
16980;DHT22;42288;52.182;21.156;2022-10-16T12:53:24;22.30;80.20
16980;DHT22;42288;52.182;21.156;2022-10-16T13:01:19;22.60;80.20
16980;DHT22;42288;52.182;21.156;2022-10-16T13:04:10;22.60;79.60
16980;DHT22;42288;52.182;21.156;2022-10-16T13:09:28;22.30;80.70
16980;DHT22;42288;52.182;21.156;2022-10-16T13:12:26;22.10;81.00
16980;DHT22;42288;52.182;21.156;2022-10-16T13:23:19;21.70;82.10
16980;DHT22;42288;52.182;21.156;2022-10-16T13:28:40;21.90;82.90
16980;DHT22;42288;52.182;21.156;2022-10-16T13:31:15;21.80;81.70
16980;DHT22;42288;52.182;21.156;2022-10-16T13:33:46;21.50;82.70
16980;DHT22;42288;52.182;21.156;2022-10-16T13:36:21;21.30;84.50
16980;DHT22;42288;52.182;21.156;2022-10-16T13:38:47;21.30;84.60
16980;DHT22;42288;52.182;21.156;2022-10-16T13:41:17;21.30;84.70
16980;DHT22;42288;52.182;21.156;2022-10-16T13:43:51;21.40;84.70
16980;DHT22;42288;52.182;21.156;2022-10-16T13:46:20;21.40;85.00
16980;DHT22;42288;52.182;21.156;2022-10-16T13:48:59;21.40;84.70
16980;DHT22;42288;52.182;21.156;2022-10-16T13:51:26;21.40;85.20
16980;DHT22;42288;52.182;21.156;2022-10-16T13:53:52;21.30;84.40
16980;DHT22;42288;52.182;21.156;2022-10-16T13:56:21;21.30;85.50
16980;DHT22;42288;52.182;21.156;2022-10-16T13:59:01;21.30;85.90
16980;DHT22;42288;52.182;21.156;2022-10-16T14:01:39;21.20;85.60
16980;DHT22;42288;52.182;21.156;2022-10-16T14:04:07;21.20;86.50
16980;DHT22;42288;52.182;21.156;2022-10-16T14:06:33;21.20;86.90
16980;DHT22;42288;52.182;21.156;2022-10-16T14:09:05;21.30;86.80
16980;DHT22;42288;52.182;21.156;2022-10-16T14:11:33;21.20;87.10
16980;DHT22;42288;52.182;21.156;2022-10-16T14:13:59;21.30;87.20
16980;DHT22;42288;52.182;21.156;2022-10-16T14:16:28;21.40;86.30
16980;DHT22;42288;52.182;21.156;2022-10-16T14:19:01;21.40;86.80
16980;DHT22;42288;52.182;21.156;2022-10-16T14:21:28;21.40;87.20
16980;DHT22;42288;52.182;21.156;2022-10-16T14:23:53;21.40;86.40
16980;DHT22;42288;52.182;21.156;2022-10-16T14:26:26;21.40;86.60
16980;DHT22;42288;52.182;21.156;2022-10-16T14:29:09;21.20;86.90
16980;DHT22;42288;52.182;21.156;2022-10-16T14:31:35;21.20;87.00
16980;DHT22;42288;52.182;21.156;2022-10-16T14:34:03;21.10;87.20
16980;DHT22;42288;52.182;21.156;2022-10-16T14:36:29;21.20;86.90
16980;DHT22;42288;52.182;21.156;2022-10-16T14:39:17;21.10;87.50
16980;DHT22;42288;52.182;21.156;2022-10-16T14:41:46;21.10;87.80
16980;DHT22;42288;52.182;21.156;2022-10-16T14:44:12;21.00;87.50
16980;DHT22;42288;52.182;21.156;2022-10-16T14:46:40;20.80;88.00
16980;DHT22;42288;52.182;21.156;2022-10-16T14:51:35;21.10;88.00
16980;DHT22;42288;52.182;21.156;2022-10-16T14:54:01;21.00;87.80
16980;DHT22;42288;52.182;21.156;2022-10-16T14:59:13;20.90;88.50
16980;DHT22;42288;52.182;21.156;2022-10-16T15:01:39;20.90;88.60
16980;DHT22;42288;52.182;21.156;2022-10-16T15:04:07;20.90;88.70
16980;DHT22;42288;52.182;21.156;2022-10-16T15:06:32;21.00;88.70
16980;DHT22;42288;52.182;21.156;2022-10-16T15:08:58;20.90;88.40
16980;DHT22;42288;52.182;21.156;2022-10-16T15:11:23;20.70;88.60
16980;DHT22;42288;52.182;21.156;2022-10-16T15:13:49;20.40;89.90
16980;DHT22;42288;52.182;21.156;2022-10-16T15:16:15;20.40;90.20
16980;DHT22;42288;52.182;21.156;2022-10-16T15:18:41;20.40;90.50
16980;DHT22;42288;52.182;21.156;2022-10-16T15:21:07;20.40;90.60
16980;DHT22;42288;52.182;21.156;2022-10-16T15:23:33;20.30;90.70
16980;DHT22;42288;52.182;21.156;2022-10-16T15:25:59;20.20;90.70
16980;DHT22;42288;52.182;21.156;2022-10-16T15:28:25;20.10;91.30
16980;DHT22;42288;52.182;21.156;2022-10-16T15:30:52;20.10;91.20
16980;DHT22;42288;52.182;21.156;2022-10-16T15:33:23;20.10;91.30
16980;DHT22;42288;52.182;21.156;2022-10-16T15:35:50;20.20;91.40
16980;DHT22;42288;52.182;21.156;2022-10-16T15:38:18;20.10;91.40
16980;DHT22;42288;52.182;21.156;2022-10-16T15:40:44;20.20;91.30
16980;DHT22;42288;52.182;21.156;2022-10-16T15:43:09;20.20;91.30
16980;DHT22;42288;52.182;21.156;2022-10-16T15:45:35;20.10;91.60
16980;DHT22;42288;52.182;21.156;2022-10-16T15:48:01;20.10;91.60
16980;DHT22;42288;52.182;21.156;2022-10-16T15:50:27;20.10;91.50
16980;DHT22;42288;52.182;21.156;2022-10-16T15:52:52;20.20;91.30
16980;DHT22;42288;52.182;21.156;2022-10-16T15:55:18;20.10;91.50
16980;DHT22;42288;52.182;21.156;2022-10-16T15:57:44;20.10;91.60
16980;DHT22;42288;52.182;21.156;2022-10-16T16:00:13;20.20;91.60
16980;DHT22;42288;52.182;21.156;2022-10-16T16:02:40;20.00;91.80
16980;DHT22;42288;52.182;21.156;2022-10-16T16:05:06;20.00;91.90
16980;DHT22;42288;52.182;21.156;2022-10-16T16:07:34;20.00;92.20
16980;DHT22;42288;52.182;21.156;2022-10-16T16:10:00;20.00;92.00
16980;DHT22;42288;52.182;21.156;2022-10-16T16:12:26;19.90;92.40
16980;DHT22;42288;52.182;21.156;2022-10-16T16:14:51;19.80;92.50
16980;DHT22;42288;52.182;21.156;2022-10-16T16:17:17;19.90;92.50
16980;DHT22;42288;52.182;21.156;2022-10-16T16:19:43;19.90;92.70
16980;DHT22;42288;52.182;21.156;2022-10-16T16:22:08;19.80;92.60
16980;DHT22;42288;52.182;21.156;2022-10-16T16:24:34;19.90;92.50
16980;DHT22;42288;52.182;21.156;2022-10-16T16:26:59;19.90;92.50
16980;DHT22;42288;52.182;21.156;2022-10-16T16:29:25;19.90;92.50
16980;DHT22;42288;52.182;21.156;2022-10-16T16:31:50;19.80;92.40
16980;DHT22;42288;52.182;21.156;2022-10-16T16:34:25;19.90;92.60
16980;DHT22;42288;52.182;21.156;2022-10-16T16:36:51;19.80;92.80
16980;DHT22;42288;52.182;21.156;2022-10-16T16:39:17;19.70;92.80
16980;DHT22;42288;52.182;21.156;2022-10-16T16:41:42;19.70;93.20
16980;DHT22;42288;52.182;21.156;2022-10-16T16:44:10;19.70;93.40
16980;DHT22;42288;52.182;21.156;2022-10-16T16:46:37;19.70;93.40
16980;DHT22;42288;52.182;21.156;2022-10-16T16:49:04;19.70;93.60
16980;DHT22;42288;52.182;21.156;2022-10-16T16:51:31;19.60;93.80
16980;DHT22;42288;52.182;21.156;2022-10-16T16:53:57;19.70;93.80
16980;DHT22;42288;52.182;21.156;2022-10-16T16:56:23;19.60;93.90
16980;DHT22;42288;52.182;21.156;2022-10-16T16:58:51;19.50;94.00
16980;DHT22;42288;52.182;21.156;2022-10-16T17:01:17;19.30;94.30
16980;DHT22;42288;52.182;21.156;2022-10-16T17:03:44;19.20;94.30
16980;DHT22;42288;52.182;21.156;2022-10-16T17:06:10;19.20;94.30
16980;DHT22;42288;52.182;21.156;2022-10-16T17:08:37;19.10;94.40